sensor_id;sensor_type;location;lat;lon;timestamp;temperature;humidity
584;HTU21D;27024;54.068;12.116;2023-03-23T00:00:07;10.90;107.67
584;HTU21D;27024;54.068;12.116;2023-03-23T00:02:34;10.85;107.78
584;HTU21D;27024;54.068;12.116;2023-03-23T00:05:07;10.84;107.84
584;HTU21D;27024;54.068;12.116;2023-03-23T00:07:34;10.93;107.49
584;HTU21D;27024;54.068;12.116;2023-03-23T00:10:01;10.96;106.66
584;HTU21D;27024;54.068;12.116;2023-03-23T00:12:30;10.82;106.53
584;HTU21D;27024;54.068;12.116;2023-03-23T00:15:01;10.86;107.13
584;HTU21D;27024;54.068;12.116;2023-03-23T00:17:28;10.74;107.98
584;HTU21D;27024;54.068;12.116;2023-03-23T00:19:54;10.77;108.49
584;HTU21D;27024;54.068;12.116;2023-03-23T00:22:21;10.87;109.19
584;HTU21D;27024;54.068;12.116;2023-03-23T00:24:47;10.87;109.63
584;HTU21D;27024;54.068;12.116;2023-03-23T00:27:16;10.71;110.43
584;HTU21D;27024;54.068;12.116;2023-03-23T00:29:42;10.65;111.28
584;HTU21D;27024;54.068;12.116;2023-03-23T00:32:12;10.74;110.45
584;HTU21D;27024;54.068;12.116;2023-03-23T00:34:40;10.72;111.76
584;HTU21D;27024;54.068;12.116;2023-03-23T00:37:09;10.67;111.88
584;HTU21D;27024;54.068;12.116;2023-03-23T00:39:35;10.62;111.03
584;HTU21D;27024;54.068;12.116;2023-03-23T00:42:04;10.62;110.68
584;HTU21D;27024;54.068;12.116;2023-03-23T00:44:32;10.52;111.02
584;HTU21D;27024;54.068;12.116;2023-03-23T00:47:01;10.56;110.49
584;HTU21D;27024;54.068;12.116;2023-03-23T00:49:27;10.55;111.26
584;HTU21D;27024;54.068;12.116;2023-03-23T00:51:55;10.52;111.82
584;HTU21D;27024;54.068;12.116;2023-03-23T00:54:22;10.44;112.09
584;HTU21D;27024;54.068;12.116;2023-03-23T00:56:48;10.43;112.23
584;HTU21D;27024;54.068;12.116;2023-03-23T00:59:14;10.49;111.98
584;HTU21D;27024;54.068;12.116;2023-03-23T01:01:39;10.44;112.57
584;HTU21D;27024;54.068;12.116;2023-03-23T01:04:06;10.40;112.68
584;HTU21D;27024;54.068;12.116;2023-03-23T01:06:34;10.34;113.54
584;HTU21D;27024;54.068;12.116;2023-03-23T01:09:14;10.30;113.92
584;HTU21D;27024;54.068;12.116;2023-03-23T01:11:41;10.25;114.52
584;HTU21D;27024;54.068;12.116;2023-03-23T01:14:08;10.25;114.94
584;HTU21D;27024;54.068;12.116;2023-03-23T01:16:34;10.33;114.82
584;HTU21D;27024;54.068;12.116;2023-03-23T01:18:59;10.27;115.22
584;HTU21D;27024;54.068;12.116;2023-03-23T01:21:25;10.28;115.27
584;HTU21D;27024;54.068;12.116;2023-03-23T01:23:51;10.24;115.86
584;HTU21D;27024;54.068;12.116;2023-03-23T01:26:20;10.16;116.76
584;HTU21D;27024;54.068;12.116;2023-03-23T01:28:46;10.24;116.38
584;HTU21D;27024;54.068;12.116;2023-03-23T01:31:15;10.21;117.05
584;HTU21D;27024;54.068;12.116;2023-03-23T01:33:42;10.21;117.12
584;HTU21D;27024;54.068;12.116;2023-03-23T01:36:29;10.23;117.65
584;HTU21D;27024;54.068;12.116;2023-03-23T01:39:03;10.18;118.08
584;HTU21D;27024;54.068;12.116;2023-03-23T01:41:30;10.19;118.24
584;HTU21D;27024;54.068;12.116;2023-03-23T01:43:57;10.13;118.99
584;HTU21D;27024;54.068;12.116;2023-03-23T01:46:28;10.19;118.92
584;HTU21D;27024;54.068;12.116;2023-03-23T01:48:55;10.12;118.99
584;HTU21D;27024;54.068;12.116;2023-03-23T01:51:24;10.04;118.99
584;HTU21D;27024;54.068;12.116;2023-03-23T01:53:55;10.06;118.99
584;HTU21D;27024;54.068;12.116;2023-03-23T01:56:24;10.08;118.99
584;HTU21D;27024;54.068;12.116;2023-03-23T01:58:52;10.05;118.99
584;HTU21D;27024;54.068;12.116;2023-03-23T02:01:19;10.10;118.99
584;HTU21D;27024;54.068;12.116;2023-03-23T02:03:47;10.01;118.99
584;HTU21D;27024;54.068;12.116;2023-03-23T02:06:14;10.05;118.99
584;HTU21D;27024;54.068;12.116;2023-03-23T02:08:41;10.05;118.99
584;HTU21D;27024;54.068;12.116;2023-03-23T02:11:15;10.12;118.99
584;HTU21D;27024;54.068;12.116;2023-03-23T02:13:42;10.15;118.99
584;HTU21D;27024;54.068;12.116;2023-03-23T02:16:21;9.99;118.99
584;HTU21D;27024;54.068;12.116;2023-03-23T02:38:42;10.04;118.99
584;HTU21D;27024;54.068;12.116;2023-03-23T02:41:10;9.99;118.99
584;HTU21D;27024;54.068;12.116;2023-03-23T02:43:43;9.99;118.99
584;HTU21D;27024;54.068;12.116;2023-03-23T02:46:10;9.96;118.99
584;HTU21D;27024;54.068;12.116;2023-03-23T02:48:38;9.99;118.99
584;HTU21D;27024;54.068;12.116;2023-03-23T02:51:06;10.01;118.99
584;HTU21D;27024;54.068;12.116;2023-03-23T02:53:34;9.93;118.99
584;HTU21D;27024;54.068;12.116;2023-03-23T02:56:03;10.01;118.99
584;HTU21D;27024;54.068;12.116;2023-03-23T02:58:30;10.06;118.99
584;HTU21D;27024;54.068;12.116;2023-03-23T03:00:56;10.03;118.99
584;HTU21D;27024;54.068;12.116;2023-03-23T03:03:28;9.98;118.99
584;HTU21D;27024;54.068;12.116;2023-03-23T03:06:02;9.93;118.99
584;HTU21D;27024;54.068;12.116;2023-03-23T03:08:43;9.94;118.99
584;HTU21D;27024;54.068;12.116;2023-03-23T03:11:17;9.97;118.99
584;HTU21D;27024;54.068;12.116;2023-03-23T03:13:52;9.93;118.99
584;HTU21D;27024;54.068;12.116;2023-03-23T03:16:33;9.89;118.99
584;HTU21D;27024;54.068;12.116;2023-03-23T03:19:16;9.94;118.99
584;HTU21D;27024;54.068;12.116;2023-03-23T03:21:46;9.90;118.99
584;HTU21D;27024;54.068;12.116;2023-03-23T03:24:17;9.95;118.99
584;HTU21D;27024;54.068;12.116;2023-03-23T03:26:48;9.96;118.99
584;HTU21D;27024;54.068;12.116;2023-03-23T03:29:18;9.83;118.99
584;HTU21D;27024;54.068;12.116;2023-03-23T03:31:44;9.88;118.99
584;HTU21D;27024;54.068;12.116;2023-03-23T03:34:12;9.80;118.99
584;HTU21D;27024;54.068;12.116;2023-03-23T03:36:46;9.79;118.99
584;HTU21D;27024;54.068;12.116;2023-03-23T03:39:14;9.74;118.99
584;HTU21D;27024;54.068;12.116;2023-03-23T03:41:41;9.79;118.99
584;HTU21D;27024;54.068;12.116;2023-03-23T03:44:07;9.72;118.99
584;HTU21D;27024;54.068;12.116;2023-03-23T03:46:34;9.77;118.99
584;HTU21D;27024;54.068;12.116;2023-03-23T03:49:02;9.75;118.99
584;HTU21D;27024;54.068;12.116;2023-03-23T03:51:29;9.78;118.99
584;HTU21D;27024;54.068;12.116;2023-03-23T03:53:55;9.79;118.99
584;HTU21D;27024;54.068;12.116;2023-03-23T03:56:22;9.84;118.99
584;HTU21D;27024;54.068;12.116;2023-03-23T03:58:48;9.84;118.99
584;HTU21D;27024;54.068;12.116;2023-03-23T04:01:17;9.88;118.99
584;HTU21D;27024;54.068;12.116;2023-03-23T04:03:44;9.88;118.99
584;HTU21D;27024;54.068;12.116;2023-03-23T04:06:10;9.85;118.99
584;HTU21D;27024;54.068;12.116;2023-03-23T04:08:38;9.79;118.99
584;HTU21D;27024;54.068;12.116;2023-03-23T04:11:08;9.85;118.99
584;HTU21D;27024;54.068;12.116;2023-03-23T04:13:34;9.84;118.99
584;HTU21D;27024;54.068;12.116;2023-03-23T04:16:00;9.84;118.99
584;HTU21D;27024;54.068;12.116;2023-03-23T04:18:26;9.89;118.99
584;HTU21D;27024;54.068;12.116;2023-03-23T04:20:52;9.88;118.99
584;HTU21D;27024;54.068;12.116;2023-03-23T04:23:19;9.91;118.99
584;HTU21D;27024;54.068;12.116;2023-03-23T04:25:49;9.91;118.99
584;HTU21D;27024;54.068;12.116;2023-03-23T04:28:17;9.86;118.99
584;HTU21D;27024;54.068;12.116;2023-03-23T04:30:45;9.86;118.99
584;HTU21D;27024;54.068;12.116;2023-03-23T04:33:11;9.86;118.99
584;HTU21D;27024;54.068;12.116;2023-03-23T04:35:43;9.86;118.99
584;HTU21D;27024;54.068;12.116;2023-03-23T04:38:15;9.81;118.99
584;HTU21D;27024;54.068;12.116;2023-03-23T04:40:43;9.81;118.99
584;HTU21D;27024;54.068;12.116;2023-03-23T04:43:10;9.80;118.99
584;HTU21D;27024;54.068;12.116;2023-03-23T04:45:38;9.80;118.99
584;HTU21D;27024;54.068;12.116;2023-03-23T04:48:08;9.88;118.99
584;HTU21D;27024;54.068;12.116;2023-03-23T04:50:34;9.89;118.99
584;HTU21D;27024;54.068;12.116;2023-03-23T04:53:01;9.89;118.99
584;HTU21D;27024;54.068;12.116;2023-03-23T04:55:31;9.85;118.99
584;HTU21D;27024;54.068;12.116;2023-03-23T04:57:57;9.89;118.99
584;HTU21D;27024;54.068;12.116;2023-03-23T05:00:27;9.89;118.99
584;HTU21D;27024;54.068;12.116;2023-03-23T05:02:52;9.88;118.99
584;HTU21D;27024;54.068;12.116;2023-03-23T05:05:21;9.89;118.99
584;HTU21D;27024;54.068;12.116;2023-03-23T05:07:48;9.93;118.99
584;HTU21D;27024;54.068;12.116;2023-03-23T05:10:15;9.86;118.99
584;HTU21D;27024;54.068;12.116;2023-03-23T05:12:41;9.88;118.99
584;HTU21D;27024;54.068;12.116;2023-03-23T05:15:08;9.86;118.99
584;HTU21D;27024;54.068;12.116;2023-03-23T05:17:35;9.89;118.99
584;HTU21D;27024;54.068;12.116;2023-03-23T05:20:02;9.98;118.99
584;HTU21D;27024;54.068;12.116;2023-03-23T05:22:35;9.93;118.99
584;HTU21D;27024;54.068;12.116;2023-03-23T05:25:02;9.97;118.99
584;HTU21D;27024;54.068;12.116;2023-03-23T05:27:29;9.96;118.99
584;HTU21D;27024;54.068;12.116;2023-03-23T05:29:56;9.99;118.99
584;HTU21D;27024;54.068;12.116;2023-03-23T05:32:27;10.07;118.99
584;HTU21D;27024;54.068;12.116;2023-03-23T05:35:05;10.05;118.99
584;HTU21D;27024;54.068;12.116;2023-03-23T05:37:31;10.10;118.99
584;HTU21D;27024;54.068;12.116;2023-03-23T05:40:00;10.10;118.99
584;HTU21D;27024;54.068;12.116;2023-03-23T05:42:31;10.09;118.99
584;HTU21D;27024;54.068;12.116;2023-03-23T05:44:58;10.07;118.99
584;HTU21D;27024;54.068;12.116;2023-03-23T05:47:24;10.12;118.99
584;HTU21D;27024;54.068;12.116;2023-03-23T05:49:51;10.06;118.99
584;HTU21D;27024;54.068;12.116;2023-03-23T05:52:18;10.09;118.99
584;HTU21D;27024;54.068;12.116;2023-03-23T05:54:44;10.10;118.99
584;HTU21D;27024;54.068;12.116;2023-03-23T05:57:10;10.13;118.99
584;HTU21D;27024;54.068;12.116;2023-03-23T05:59:36;10.18;118.99
584;HTU21D;27024;54.068;12.116;2023-03-23T06:02:03;10.16;118.99
584;HTU21D;27024;54.068;12.116;2023-03-23T06:04:29;10.19;118.99
584;HTU21D;27024;54.068;12.116;2023-03-23T06:06:55;10.18;118.99
584;HTU21D;27024;54.068;12.116;2023-03-23T06:09:21;10.19;118.99
584;HTU21D;27024;54.068;12.116;2023-03-23T06:11:48;10.18;118.99
584;HTU21D;27024;54.068;12.116;2023-03-23T06:14:14;10.24;118.99
584;HTU21D;27024;54.068;12.116;2023-03-23T06:16:41;10.27;118.99
584;HTU21D;27024;54.068;12.116;2023-03-23T06:19:07;10.26;118.99
584;HTU21D;27024;54.068;12.116;2023-03-23T06:21:33;10.26;118.99
584;HTU21D;27024;54.068;12.116;2023-03-23T06:24:00;10.25;118.99
584;HTU21D;27024;54.068;12.116;2023-03-23T06:26:30;10.26;118.99
584;HTU21D;27024;54.068;12.116;2023-03-23T06:28:57;10.34;118.99
584;HTU21D;27024;54.068;12.116;2023-03-23T06:31:24;10.29;118.99
584;HTU21D;27024;54.068;12.116;2023-03-23T06:33:50;10.37;118.99
584;HTU21D;27024;54.068;12.116;2023-03-23T06:36:16;10.41;118.99
584;HTU21D;27024;54.068;12.116;2023-03-23T06:38:43;10.42;118.99
584;HTU21D;27024;54.068;12.116;2023-03-23T06:41:08;10.48;118.99
584;HTU21D;27024;54.068;12.116;2023-03-23T06:43:34;10.45;118.99
584;HTU21D;27024;54.068;12.116;2023-03-23T06:46:03;10.49;118.99
584;HTU21D;27024;54.068;12.116;2023-03-23T06:48:29;10.49;118.99
584;HTU21D;27024;54.068;12.116;2023-03-23T06:50:55;10.46;118.99
584;HTU21D;27024;54.068;12.116;2023-03-23T06:53:20;10.59;118.99
584;HTU21D;27024;54.068;12.116;2023-03-23T06:55:46;10.55;118.99
584;HTU21D;27024;54.068;12.116;2023-03-23T06:58:12;10.58;118.99
584;HTU21D;27024;54.068;12.116;2023-03-23T07:00:39;10.54;118.99
584;HTU21D;27024;54.068;12.116;2023-03-23T07:03:06;10.52;118.99
584;HTU21D;27024;54.068;12.116;2023-03-23T07:05:34;10.54;118.99
584;HTU21D;27024;54.068;12.116;2023-03-23T07:08:02;10.58;118.99
584;HTU21D;27024;54.068;12.116;2023-03-23T07:10:27;10.65;118.99
584;HTU21D;27024;54.068;12.116;2023-03-23T07:12:54;10.64;118.99
584;HTU21D;27024;54.068;12.116;2023-03-23T07:15:19;10.67;118.99
584;HTU21D;27024;54.068;12.116;2023-03-23T07:17:47;10.68;118.99
584;HTU21D;27024;54.068;12.116;2023-03-23T07:20:13;10.75;118.99
584;HTU21D;27024;54.068;12.116;2023-03-23T07:22:39;10.78;118.99
584;HTU21D;27024;54.068;12.116;2023-03-23T07:25:06;10.80;118.99
584;HTU21D;27024;54.068;12.116;2023-03-23T07:27:31;10.93;118.99
584;HTU21D;27024;54.068;12.116;2023-03-23T07:29:57;11.01;118.99
584;HTU21D;27024;54.068;12.116;2023-03-23T07:32:24;11.08;118.99
584;HTU21D;27024;54.068;12.116;2023-03-23T07:34:50;11.23;118.99
584;HTU21D;27024;54.068;12.116;2023-03-23T07:37:16;11.24;118.99
584;HTU21D;27024;54.068;12.116;2023-03-23T07:39:42;11.25;118.99
584;HTU21D;27024;54.068;12.116;2023-03-23T07:42:08;11.25;118.99
584;HTU21D;27024;54.068;12.116;2023-03-23T07:44:34;11.37;118.99
584;HTU21D;27024;54.068;12.116;2023-03-23T07:47:00;11.30;118.99
584;HTU21D;27024;54.068;12.116;2023-03-23T07:49:26;11.41;118.99
584;HTU21D;27024;54.068;12.116;2023-03-23T07:51:52;11.57;118.99
584;HTU21D;27024;54.068;12.116;2023-03-23T07:54:18;11.74;118.99
584;HTU21D;27024;54.068;12.116;2023-03-23T07:56:44;11.86;117.97
584;HTU21D;27024;54.068;12.116;2023-03-23T07:59:11;11.81;117.86
584;HTU21D;27024;54.068;12.116;2023-03-23T08:01:38;11.78;117.42
584;HTU21D;27024;54.068;12.116;2023-03-23T08:04:05;11.69;118.46
584;HTU21D;27024;54.068;12.116;2023-03-23T08:06:34;11.85;118.25
584;HTU21D;27024;54.068;12.116;2023-03-23T08:09:01;12.00;116.47
584;HTU21D;27024;54.068;12.116;2023-03-23T08:11:32;11.97;114.53
584;HTU21D;27024;54.068;12.116;2023-03-23T08:13:58;12.15;113.50
584;HTU21D;27024;54.068;12.116;2023-03-23T08:16:24;12.10;113.21
584;HTU21D;27024;54.068;12.116;2023-03-23T08:18:50;12.00;113.51
584;HTU21D;27024;54.068;12.116;2023-03-23T08:21:17;12.02;113.76
584;HTU21D;27024;54.068;12.116;2023-03-23T08:23:43;12.48;111.64
584;HTU21D;27024;54.068;12.116;2023-03-23T08:26:09;12.93;109.49
584;HTU21D;27024;54.068;12.116;2023-03-23T08:28:36;13.40;107.11
584;HTU21D;27024;54.068;12.116;2023-03-23T08:31:11;13.49;104.59
584;HTU21D;27024;54.068;12.116;2023-03-23T08:33:38;13.65;105.14
584;HTU21D;27024;54.068;12.116;2023-03-23T08:36:04;13.69;103.42
584;HTU21D;27024;54.068;12.116;2023-03-23T08:38:30;13.91;102.26
584;HTU21D;27024;54.068;12.116;2023-03-23T08:41:01;13.79;102.52
584;HTU21D;27024;54.068;12.116;2023-03-23T08:43:28;13.59;103.21
584;HTU21D;27024;54.068;12.116;2023-03-23T08:45:54;13.36;104.65
584;HTU21D;27024;54.068;12.116;2023-03-23T08:48:21;13.38;104.83
584;HTU21D;27024;54.068;12.116;2023-03-23T08:50:49;13.24;105.33
584;HTU21D;27024;54.068;12.116;2023-03-23T08:53:15;13.15;105.77
584;HTU21D;27024;54.068;12.116;2023-03-23T08:55:41;13.12;105.55
584;HTU21D;27024;54.068;12.116;2023-03-23T08:58:08;13.48;105.19
584;HTU21D;27024;54.068;12.116;2023-03-23T09:00:34;13.83;102.49
584;HTU21D;27024;54.068;12.116;2023-03-23T09:03:00;14.55;99.61
584;HTU21D;27024;54.068;12.116;2023-03-23T09:05:27;14.67;99.16
584;HTU21D;27024;54.068;12.116;2023-03-23T09:07:56;14.41;98.02
584;HTU21D;27024;54.068;12.116;2023-03-23T09:10:26;14.05;99.48
584;HTU21D;27024;54.068;12.116;2023-03-23T09:12:53;13.93;100.54
584;HTU21D;27024;54.068;12.116;2023-03-23T09:15:19;13.98;99.90
584;HTU21D;27024;54.068;12.116;2023-03-23T09:17:48;14.04;99.57
584;HTU21D;27024;54.068;12.116;2023-03-23T09:20:20;14.55;97.36
584;HTU21D;27024;54.068;12.116;2023-03-23T09:22:49;14.81;95.39
584;HTU21D;27024;54.068;12.116;2023-03-23T09:25:18;14.56;94.84
584;HTU21D;27024;54.068;12.116;2023-03-23T09:27:49;14.49;96.21
584;HTU21D;27024;54.068;12.116;2023-03-23T09:30:19;14.75;95.63
584;HTU21D;27024;54.068;12.116;2023-03-23T09:32:46;15.13;92.63
584;HTU21D;27024;54.068;12.116;2023-03-23T09:35:16;14.49;95.62
584;HTU21D;27024;54.068;12.116;2023-03-23T09:37:45;14.26;96.58
584;HTU21D;27024;54.068;12.116;2023-03-23T09:40:15;13.98;98.26
584;HTU21D;27024;54.068;12.116;2023-03-23T09:54:26;13.18;104.86
584;HTU21D;27024;54.068;12.116;2023-03-23T09:56:53;12.92;107.14
584;HTU21D;27024;54.068;12.116;2023-03-23T09:59:35;12.62;104.09
584;HTU21D;27024;54.068;12.116;2023-03-23T10:02:15;11.82;103.92
584;HTU21D;27024;54.068;12.116;2023-03-23T10:04:48;11.28;105.34
584;HTU21D;27024;54.068;12.116;2023-03-23T10:07:17;11.09;106.35
584;HTU21D;27024;54.068;12.116;2023-03-23T10:09:45;11.02;108.35
584;HTU21D;27024;54.068;12.116;2023-03-23T10:12:21;10.93;109.05
584;HTU21D;27024;54.068;12.116;2023-03-23T10:15:02;11.01;109.49
584;HTU21D;27024;54.068;12.116;2023-03-23T10:23:09;10.87;113.14
584;HTU21D;27024;54.068;12.116;2023-03-23T10:25:41;10.90;112.45
584;HTU21D;27024;54.068;12.116;2023-03-23T10:28:12;10.90;112.77
584;HTU21D;27024;54.068;12.116;2023-03-23T10:30:50;10.83;112.92
584;HTU21D;27024;54.068;12.116;2023-03-23T10:33:28;10.89;111.85
584;HTU21D;27024;54.068;12.116;2023-03-23T10:35:59;11.05;110.31
584;HTU21D;27024;54.068;12.116;2023-03-23T10:38:49;11.53;109.20
584;HTU21D;27024;54.068;12.116;2023-03-23T10:41:19;11.69;107.07
584;HTU21D;27024;54.068;12.116;2023-03-23T10:43:46;12.14;105.69
584;HTU21D;27024;54.068;12.116;2023-03-23T10:49:18;13.32;99.38
584;HTU21D;27024;54.068;12.116;2023-03-23T10:51:53;13.14;96.45
584;HTU21D;27024;54.068;12.116;2023-03-23T10:54:36;13.04;96.93
584;HTU21D;27024;54.068;12.116;2023-03-23T10:57:34;12.93;96.87
584;HTU21D;27024;54.068;12.116;2023-03-23T11:00:21;13.06;96.29
584;HTU21D;27024;54.068;12.116;2023-03-23T11:03:06;12.95;95.81
584;HTU21D;27024;54.068;12.116;2023-03-23T11:05:36;13.01;96.39
584;HTU21D;27024;54.068;12.116;2023-03-23T11:08:03;12.81;96.26
584;HTU21D;27024;54.068;12.116;2023-03-23T11:10:39;13.00;95.96
584;HTU21D;27024;54.068;12.116;2023-03-23T11:13:12;14.14;92.05
584;HTU21D;27024;54.068;12.116;2023-03-23T11:15:41;14.04;94.01
584;HTU21D;27024;54.068;12.116;2023-03-23T11:18:27;13.94;95.68
584;HTU21D;27024;54.068;12.116;2023-03-23T11:21:00;13.94;94.65
584;HTU21D;27024;54.068;12.116;2023-03-23T11:23:41;14.05;95.33
584;HTU21D;27024;54.068;12.116;2023-03-23T11:26:32;13.95;94.62
584;HTU21D;27024;54.068;12.116;2023-03-23T11:29:20;14.04;96.20
584;HTU21D;27024;54.068;12.116;2023-03-23T11:32:09;13.94;95.36
584;HTU21D;27024;54.068;12.116;2023-03-23T11:34:42;13.82;94.92
584;HTU21D;27024;54.068;12.116;2023-03-23T11:37:13;13.55;96.08
584;HTU21D;27024;54.068;12.116;2023-03-23T11:40:02;13.54;95.01
584;HTU21D;27024;54.068;12.116;2023-03-23T11:42:58;13.66;94.85
584;HTU21D;27024;54.068;12.116;2023-03-23T11:45:34;13.80;94.27
584;HTU21D;27024;54.068;12.116;2023-03-23T11:48:12;14.09;94.49
584;HTU21D;27024;54.068;12.116;2023-03-23T11:50:52;15.00;89.58
584;HTU21D;27024;54.068;12.116;2023-03-23T11:53:36;15.84;87.21
584;HTU21D;27024;54.068;12.116;2023-03-23T11:56:12;15.62;84.34
584;HTU21D;27024;54.068;12.116;2023-03-23T11:58:39;15.37;85.89
584;HTU21D;27024;54.068;12.116;2023-03-23T12:03:58;15.14;85.84
584;HTU21D;27024;54.068;12.116;2023-03-23T12:09:14;14.88;85.23
584;HTU21D;27024;54.068;12.116;2023-03-23T12:15:10;15.24;82.49
584;HTU21D;27024;54.068;12.116;2023-03-23T12:41:16;14.38;87.10
584;HTU21D;27024;54.068;12.116;2023-03-23T12:44:00;14.29;85.94
584;HTU21D;27024;54.068;12.116;2023-03-23T12:51:37;14.01;85.75
584;HTU21D;27024;54.068;12.116;2023-03-23T13:03:38;13.86;87.30
584;HTU21D;27024;54.068;12.116;2023-03-23T13:06:32;13.95;86.61
584;HTU21D;27024;54.068;12.116;2023-03-23T13:11:37;13.94;87.72
584;HTU21D;27024;54.068;12.116;2023-03-23T13:20:15;13.86;85.29
584;HTU21D;27024;54.068;12.116;2023-03-23T13:28:02;13.93;85.98
584;HTU21D;27024;54.068;12.116;2023-03-23T13:30:29;13.95;86.61
584;HTU21D;27024;54.068;12.116;2023-03-23T13:33:03;13.92;86.00
584;HTU21D;27024;54.068;12.116;2023-03-23T13:35:37;14.11;85.15
584;HTU21D;27024;54.068;12.116;2023-03-23T13:40:47;14.00;86.40
584;HTU21D;27024;54.068;12.116;2023-03-23T13:43:13;14.08;85.84
584;HTU21D;27024;54.068;12.116;2023-03-23T13:45:47;13.93;84.58
584;HTU21D;27024;54.068;12.116;2023-03-23T13:50:59;13.75;85.63
584;HTU21D;27024;54.068;12.116;2023-03-23T13:53:44;13.66;84.74
584;HTU21D;27024;54.068;12.116;2023-03-23T13:56:20;13.79;84.68
584;HTU21D;27024;54.068;12.116;2023-03-23T13:58:51;13.82;84.19
584;HTU21D;27024;54.068;12.116;2023-03-23T14:01:31;13.73;84.87
584;HTU21D;27024;54.068;12.116;2023-03-23T14:03:59;13.79;85.10
584;HTU21D;27024;54.068;12.116;2023-03-23T14:06:33;13.88;85.71
584;HTU21D;27024;54.068;12.116;2023-03-23T14:09:06;14.08;85.06
584;HTU21D;27024;54.068;12.116;2023-03-23T14:11:49;14.18;84.79
584;HTU21D;27024;54.068;12.116;2023-03-23T14:14:29;14.08;85.82
584;HTU21D;27024;54.068;12.116;2023-03-23T14:17:13;14.01;85.93
584;HTU21D;27024;54.068;12.116;2023-03-23T14:19:41;13.91;86.97
584;HTU21D;27024;54.068;12.116;2023-03-23T14:22:25;13.80;88.04
584;HTU21D;27024;54.068;12.116;2023-03-23T14:24:53;13.84;87.83
584;HTU21D;27024;54.068;12.116;2023-03-23T14:27:24;13.77;89.24
584;HTU21D;27024;54.068;12.116;2023-03-23T14:30:01;13.68;87.98
584;HTU21D;27024;54.068;12.116;2023-03-23T14:32:28;13.65;88.38
584;HTU21D;27024;54.068;12.116;2023-03-23T14:34:55;13.81;88.52
584;HTU21D;27024;54.068;12.116;2023-03-23T14:37:22;14.06;87.23
584;HTU21D;27024;54.068;12.116;2023-03-23T14:39:53;14.86;82.75
584;HTU21D;27024;54.068;12.116;2023-03-23T14:42:28;15.90;74.59
584;HTU21D;27024;54.068;12.116;2023-03-23T14:44:55;16.54;69.79
584;HTU21D;27024;54.068;12.116;2023-03-23T14:47:29;16.93;68.59
584;HTU21D;27024;54.068;12.116;2023-03-23T14:49:58;16.69;72.41
584;HTU21D;27024;54.068;12.116;2023-03-23T14:52:27;16.71;73.83
584;HTU21D;27024;54.068;12.116;2023-03-23T14:54:53;16.66;74.64
584;HTU21D;27024;54.068;12.116;2023-03-23T14:57:28;16.81;74.03
584;HTU21D;27024;54.068;12.116;2023-03-23T14:59:54;16.40;72.35
584;HTU21D;27024;54.068;12.116;2023-03-23T15:05:00;15.52;80.69
584;HTU21D;27024;54.068;12.116;2023-03-23T15:07:34;15.58;81.09
584;HTU21D;27024;54.068;12.116;2023-03-23T15:10:01;15.23;80.35
584;HTU21D;27024;54.068;12.116;2023-03-23T15:12:29;15.36;80.43
584;HTU21D;27024;54.068;12.116;2023-03-23T15:15:03;15.09;82.78
584;HTU21D;27024;54.068;12.116;2023-03-23T15:17:34;15.03;84.16
584;HTU21D;27024;54.068;12.116;2023-03-23T15:23:06;15.08;86.90
584;HTU21D;27024;54.068;12.116;2023-03-23T15:25:34;14.75;88.15
584;HTU21D;27024;54.068;12.116;2023-03-23T15:30:33;14.34;90.53
584;HTU21D;27024;54.068;12.116;2023-03-23T15:33:19;14.27;91.05
584;HTU21D;27024;54.068;12.116;2023-03-23T15:35:52;14.08;90.34
584;HTU21D;27024;54.068;12.116;2023-03-23T15:38:32;14.17;89.21
584;HTU21D;27024;54.068;12.116;2023-03-23T15:41:03;14.05;89.87
584;HTU21D;27024;54.068;12.116;2023-03-23T15:43:35;13.78;91.06
584;HTU21D;27024;54.068;12.116;2023-03-23T15:46:04;13.59;91.88
584;HTU21D;27024;54.068;12.116;2023-03-23T15:51:15;13.45;91.56
584;HTU21D;27024;54.068;12.116;2023-03-23T15:53:42;13.54;90.90
584;HTU21D;27024;54.068;12.116;2023-03-23T15:56:11;13.53;90.96
584;HTU21D;27024;54.068;12.116;2023-03-23T15:58:38;13.58;91.22
584;HTU21D;27024;54.068;12.116;2023-03-23T16:01:17;13.38;92.13
584;HTU21D;27024;54.068;12.116;2023-03-23T16:03:57;13.35;92.72
584;HTU21D;27024;54.068;12.116;2023-03-23T16:06:26;13.35;92.50
584;HTU21D;27024;54.068;12.116;2023-03-23T16:08:54;13.20;93.08
584;HTU21D;27024;54.068;12.116;2023-03-23T16:11:24;13.16;94.08
584;HTU21D;27024;54.068;12.116;2023-03-23T16:13:52;13.09;95.85
584;HTU21D;27024;54.068;12.116;2023-03-23T16:16:35;12.85;91.71
584;HTU21D;27024;54.068;12.116;2023-03-23T16:19:03;12.78;89.70
584;HTU21D;27024;54.068;12.116;2023-03-23T16:21:31;12.64;90.60
584;HTU21D;27024;54.068;12.116;2023-03-23T16:23:58;12.61;94.09
584;HTU21D;27024;54.068;12.116;2023-03-23T16:26:25;12.72;91.11
584;HTU21D;27024;54.068;12.116;2023-03-23T16:28:52;13.03;88.54
584;HTU21D;27024;54.068;12.116;2023-03-23T16:31:31;13.34;84.88
584;HTU21D;27024;54.068;12.116;2023-03-23T16:33:58;13.64;82.82
584;HTU21D;27024;54.068;12.116;2023-03-23T16:36:25;13.68;82.58
584;HTU21D;27024;54.068;12.116;2023-03-23T16:38:52;13.68;83.31
584;HTU21D;27024;54.068;12.116;2023-03-23T16:41:20;13.59;85.69
584;HTU21D;27024;54.068;12.116;2023-03-23T16:43:47;13.39;88.33
584;HTU21D;27024;54.068;12.116;2023-03-23T16:46:13;13.12;90.50
584;HTU21D;27024;54.068;12.116;2023-03-23T16:48:40;12.86;92.56
584;HTU21D;27024;54.068;12.116;2023-03-23T16:51:07;12.76;93.17
584;HTU21D;27024;54.068;12.116;2023-03-23T16:53:35;12.61;92.74
584;HTU21D;27024;54.068;12.116;2023-03-23T16:56:03;12.41;91.94
584;HTU21D;27024;54.068;12.116;2023-03-23T16:58:30;12.30;91.32
584;HTU21D;27024;54.068;12.116;2023-03-23T17:00:57;12.22;90.95
584;HTU21D;27024;54.068;12.116;2023-03-23T17:03:24;12.18;90.73
584;HTU21D;27024;54.068;12.116;2023-03-23T17:05:51;12.02;91.79
584;HTU21D;27024;54.068;12.116;2023-03-23T17:08:18;11.96;92.52
584;HTU21D;27024;54.068;12.116;2023-03-23T17:10:47;11.88;93.35
584;HTU21D;27024;54.068;12.116;2023-03-23T17:13:13;11.72;94.46
584;HTU21D;27024;54.068;12.116;2023-03-23T17:15:41;11.53;95.71
584;HTU21D;27024;54.068;12.116;2023-03-23T17:18:12;11.40;96.29
584;HTU21D;27024;54.068;12.116;2023-03-23T17:20:41;11.23;96.81
584;HTU21D;27024;54.068;12.116;2023-03-23T17:23:08;11.17;96.77
584;HTU21D;27024;54.068;12.116;2023-03-23T17:25:35;11.08;97.36
584;HTU21D;27024;54.068;12.116;2023-03-23T17:28:01;10.94;98.02
584;HTU21D;27024;54.068;12.116;2023-03-23T17:30:33;10.98;97.90
584;HTU21D;27024;54.068;12.116;2023-03-23T17:33:01;10.83;99.04
584;HTU21D;27024;54.068;12.116;2023-03-23T17:35:28;10.78;99.24
584;HTU21D;27024;54.068;12.116;2023-03-23T17:37:55;10.67;100.06